createdAt,value
2023-04-26T00:00:48.373Z,6.57
2023-04-26T00:03:17.093Z,6.47
2023-04-26T00:05:45.816Z,6.49
2023-04-26T00:08:15.922Z,6.48
2023-04-26T00:10:44.495Z,6.50
2023-04-26T00:13:13.165Z,6.44
2023-04-26T00:15:41.846Z,6.50
2023-04-26T00:18:11.090Z,6.49
2023-04-26T00:20:40.115Z,6.45
2023-04-26T00:23:09.527Z,6.45
2023-04-26T00:25:40.000Z,6.41
2023-04-26T00:28:08.472Z,6.40
2023-04-26T00:30:41.580Z,6.48
2023-04-26T00:33:10.264Z,6.43
2023-04-26T00:35:39.695Z,6.36
2023-04-26T00:38:08.907Z,6.32
2023-04-26T00:40:38.903Z,6.34
2023-04-26T00:43:08.501Z,6.39
2023-04-26T00:45:37.515Z,6.41
2023-04-26T00:48:06.421Z,6.32
2023-04-26T00:50:36.934Z,6.34
2023-04-26T00:53:06.405Z,6.30
2023-04-26T00:55:35.577Z,6.24
2023-04-26T00:58:05.668Z,6.21
2023-04-26T01:00:34.477Z,6.14
2023-04-26T01:03:03.740Z,6.11
2023-04-26T01:05:32.473Z,6.10
2023-04-26T01:08:02.930Z,6.13
2023-04-26T01:10:32.702Z,6.07
2023-04-26T01:13:01.827Z,5.92
2023-04-26T01:15:33.714Z,5.98
2023-04-26T01:18:03.416Z,5.98
2023-04-26T01:20:32.852Z,5.99
2023-04-26T01:23:02.811Z,5.99
2023-04-26T01:25:31.662Z,5.97
2023-04-26T01:28:00.052Z,5.98
2023-04-26T01:30:28.711Z,5.91
2023-04-26T01:32:57.354Z,5.88
2023-04-26T01:35:25.886Z,5.83
2023-04-26T01:37:54.522Z,5.82
2023-04-26T01:40:24.721Z,5.75
2023-04-26T01:42:53.363Z,5.60
2023-04-26T01:45:21.741Z,5.55
2023-04-26T01:47:50.674Z,5.45
2023-04-26T01:50:19.333Z,5.39
2023-04-26T01:52:47.811Z,5.31
2023-04-26T01:55:16.400Z,5.28
2023-04-26T01:57:46.435Z,5.32
2023-04-26T02:00:15.345Z,5.26
2023-04-26T02:02:43.853Z,5.19
2023-04-26T02:05:13.445Z,5.22
2023-04-26T02:07:42.015Z,5.30
2023-04-26T02:10:11.030Z,5.31
2023-04-26T02:12:39.584Z,5.32
2023-04-26T02:15:10.752Z,5.27
2023-04-26T02:17:40.265Z,5.32
2023-04-26T02:20:11.731Z,5.27
2023-04-26T02:22:40.157Z,5.30
2023-04-26T02:25:10.353Z,5.26
2023-04-26T02:27:39.225Z,5.29
2023-04-26T02:30:11.701Z,5.21
2023-04-26T02:32:40.435Z,5.25
2023-04-26T02:35:09.802Z,5.26
2023-04-26T02:37:38.700Z,5.29
2023-04-26T02:40:11.092Z,5.24
2023-04-26T02:42:39.526Z,5.18
2023-04-26T02:45:10.179Z,5.20
2023-04-26T02:47:39.056Z,5.23
2023-04-26T02:50:10.654Z,5.20
2023-04-26T02:52:39.244Z,5.21
2023-04-26T02:55:09.002Z,5.21
2023-04-26T02:57:37.545Z,5.21
2023-04-26T03:00:08.313Z,5.15
2023-04-26T03:02:38.736Z,5.18
2023-04-26T03:05:08.211Z,5.19
2023-04-26T03:07:36.902Z,5.17
2023-04-26T03:10:06.377Z,5.18
2023-04-26T03:12:35.514Z,5.22
2023-04-26T03:15:04.760Z,5.22
2023-04-26T03:17:33.288Z,5.21
2023-04-26T03:20:04.641Z,5.21
2023-04-26T03:22:33.060Z,5.09
2023-04-26T03:25:01.948Z,5.07
2023-04-26T03:27:30.454Z,5.03
2023-04-26T03:29:59.152Z,5.01
2023-04-26T03:32:27.756Z,4.96
2023-04-26T03:34:56.381Z,4.94
2023-04-26T03:37:26.362Z,4.79
2023-04-26T03:39:54.848Z,4.74
2023-04-26T03:42:23.389Z,4.80
2023-04-26T03:44:51.887Z,4.80
2023-04-26T03:47:20.525Z,4.80
2023-04-26T03:49:48.920Z,4.82
2023-04-26T03:52:17.380Z,4.87
2023-04-26T03:54:47.254Z,4.82
2023-04-26T03:57:15.791Z,4.81
2023-04-26T03:59:44.313Z,4.87
2023-04-26T04:02:13.809Z,4.85
2023-04-26T04:04:42.574Z,4.85
2023-04-26T04:07:11.157Z,4.81
2023-04-26T04:09:39.662Z,4.89
2023-04-26T04:12:09.580Z,4.76
2023-04-26T04:14:37.974Z,4.75
2023-04-26T04:17:06.696Z,4.78
2023-04-26T04:19:35.297Z,4.79
2023-04-26T04:22:03.826Z,4.75
2023-04-26T04:24:34.375Z,4.76
2023-04-26T04:27:03.651Z,4.77
2023-04-26T04:29:33.940Z,4.68
2023-04-26T04:32:02.485Z,4.81
2023-04-26T04:34:31.322Z,4.87
2023-04-26T04:36:59.805Z,4.82
2023-04-26T04:39:28.254Z,4.98
2023-04-26T04:41:56.926Z,4.99
2023-04-26T04:44:27.267Z,5.00
2023-04-26T04:46:58.779Z,5.02
2023-04-26T04:49:27.459Z,5.03
2023-04-26T04:51:56.157Z,5.05
2023-04-26T04:54:25.041Z,5.04
2023-04-26T04:56:53.680Z,5.04
2023-04-26T04:59:22.063Z,5.09
2023-04-26T05:01:50.900Z,5.09
2023-04-26T05:04:21.410Z,5.13
2023-04-26T05:06:50.139Z,5.11
2023-04-26T05:09:18.524Z,5.11
2023-04-26T05:11:47.069Z,5.16
2023-04-26T05:14:15.533Z,5.21
2023-04-26T05:16:44.134Z,5.25
2023-04-26T05:19:13.629Z,5.32
2023-04-26T05:21:43.624Z,5.39
2023-04-26T05:24:12.166Z,5.35
2023-04-26T05:26:40.881Z,5.46
2023-04-26T05:29:09.312Z,5.52
2023-04-26T05:31:38.308Z,5.55
2023-04-26T05:34:06.851Z,5.60
2023-04-26T05:36:35.275Z,5.67
2023-04-26T05:39:08.845Z,5.75
2023-04-26T05:41:37.770Z,5.77
2023-04-26T05:44:06.502Z,5.81
2023-04-26T05:46:35.855Z,5.87
2023-04-26T05:49:04.470Z,5.92
2023-04-26T05:51:32.909Z,5.94
2023-04-26T05:54:01.438Z,6.00
2023-04-26T05:56:31.600Z,6.07
2023-04-26T05:59:00.049Z,6.08
2023-04-26T06:01:28.643Z,6.13
2023-04-26T06:04:00.252Z,6.10
2023-04-26T06:06:29.752Z,6.16
2023-04-26T06:08:58.648Z,6.16
2023-04-26T06:11:27.143Z,6.18
2023-04-26T06:13:57.217Z,6.23
2023-04-26T06:16:25.706Z,6.32
2023-04-26T06:18:54.299Z,6.42
2023-04-26T06:21:22.779Z,6.55
2023-04-26T06:23:51.829Z,6.63
2023-04-26T06:26:20.719Z,6.68
2023-04-26T06:28:49.242Z,6.63
2023-04-26T06:31:20.108Z,6.63
2023-04-26T06:33:48.734Z,6.61
2023-04-26T06:36:17.216Z,6.77
2023-04-26T06:38:45.777Z,6.91
2023-04-26T06:41:14.281Z,6.96
2023-04-26T06:43:42.777Z,7.04
2023-04-26T06:46:11.269Z,7.07
2023-04-26T06:48:41.419Z,6.95
2023-04-26T06:51:10.172Z,6.84
2023-04-26T06:53:38.872Z,6.80
2023-04-26T06:56:07.935Z,6.87
2023-04-26T06:58:36.636Z,6.92
2023-04-26T07:01:06.679Z,6.93
2023-04-26T07:03:35.212Z,7.02
2023-04-26T07:06:05.403Z,7.12
2023-04-26T07:08:33.772Z,7.25
2023-04-26T07:11:02.219Z,7.13
2023-04-26T07:13:31.815Z,7.06
2023-04-26T07:16:00.271Z,7.09
2023-04-26T07:18:28.818Z,7.19
2023-04-26T07:20:57.244Z,7.24
2023-04-26T07:23:27.316Z,7.21
2023-04-26T07:25:56.392Z,7.22
2023-04-26T07:28:26.665Z,7.42
2023-04-26T07:30:55.481Z,7.45
2023-04-26T07:33:23.976Z,7.53
2023-04-26T07:35:56.223Z,7.60
2023-04-26T07:38:24.976Z,7.76
2023-04-26T07:40:55.086Z,7.84
2023-04-26T07:43:24.307Z,7.93
2023-04-26T07:45:52.826Z,8.00
2023-04-26T07:48:21.381Z,7.93
2023-04-26T07:50:49.801Z,7.95
2023-04-26T07:53:18.748Z,8.06
2023-04-26T07:55:47.639Z,7.86
2023-04-26T07:58:17.554Z,8.08
2023-04-26T08:00:46.019Z,8.11
2023-04-26T08:03:17.050Z,8.13
2023-04-26T08:05:46.152Z,8.07
2023-04-26T08:08:15.768Z,7.98
2023-04-26T08:10:45.059Z,8.09
2023-04-26T08:13:13.629Z,8.26
2023-04-26T08:15:43.741Z,8.40
2023-04-26T08:18:12.784Z,8.49
2023-04-26T08:20:41.326Z,8.74
2023-04-26T08:23:09.888Z,8.84
2023-04-26T08:25:38.689Z,8.93
2023-04-26T08:28:08.914Z,8.68
2023-04-26T08:30:37.537Z,8.49
2023-04-26T08:33:07.715Z,8.60
2023-04-26T08:35:36.420Z,8.48
2023-04-26T08:38:05.013Z,8.51
2023-04-26T08:40:34.110Z,8.66
2023-04-26T08:43:02.652Z,8.93
2023-04-26T08:45:35.378Z,8.95
2023-04-26T08:48:09.550Z,8.87
2023-04-26T08:50:40.341Z,8.68
2023-04-26T08:53:10.363Z,8.70
2023-04-26T08:55:40.015Z,8.68
2023-04-26T08:58:11.631Z,8.49
2023-04-26T09:00:40.526Z,8.51
2023-04-26T09:03:10.782Z,8.82
2023-04-26T09:05:44.351Z,9.22
2023-04-26T09:08:17.744Z,9.28
2023-04-26T09:10:46.952Z,9.14
2023-04-26T09:13:18.479Z,9.10
2023-04-26T09:15:53.420Z,8.95
2023-04-26T09:18:24.596Z,8.96
2023-04-26T09:21:04.988Z,9.17
2023-04-26T09:23:34.054Z,9.48
2023-04-26T09:26:19.779Z,9.74
2023-04-26T09:28:48.728Z,9.82
2023-04-26T09:31:39.150Z,9.75
2023-04-26T09:34:11.419Z,9.38
2023-04-26T09:36:50.723Z,8.92
2023-04-26T09:39:33.328Z,8.78
2023-04-26T09:42:02.320Z,8.86
2023-04-26T09:44:32.947Z,8.97
2023-04-26T09:47:03.457Z,9.23
2023-04-26T09:49:35.763Z,9.53
2023-04-26T09:52:08.027Z,9.84
2023-04-26T09:54:49.436Z,10.09
2023-04-26T09:57:20.306Z,10.01
2023-04-26T09:59:54.230Z,9.87
2023-04-26T10:02:26.876Z,9.82
2023-04-26T10:05:00.241Z,10.09
2023-04-26T10:07:29.696Z,10.08
2023-04-26T10:10:00.516Z,9.91
2023-04-26T10:12:30.218Z,9.76
2023-04-26T10:14:59.339Z,9.84
2023-04-26T10:17:30.036Z,9.93
2023-04-26T10:20:02.329Z,9.87
2023-04-26T10:22:35.629Z,9.89
2023-04-26T10:25:04.712Z,10.08
2023-04-26T10:27:53.149Z,10.11
2023-04-26T10:30:24.725Z,10.30
2023-04-26T10:33:16.925Z,10.56
2023-04-26T10:36:07.083Z,10.38
2023-04-26T10:38:37.347Z,10.31
2023-04-26T10:41:34.740Z,10.45
2023-04-26T10:44:45.965Z,10.48
2023-04-26T10:47:28.220Z,10.74
2023-04-26T10:50:08.619Z,10.52
2023-04-26T10:53:08.130Z,10.32
2023-04-26T10:55:42.017Z,10.04
2023-04-26T10:58:29.165Z,9.70
2023-04-26T11:01:18.016Z,9.46
2023-04-26T11:04:06.565Z,9.46
2023-04-26T11:06:49.862Z,9.58
2023-04-26T11:09:40.013Z,10.06
2023-04-26T11:12:12.824Z,10.41
2023-04-26T11:14:45.827Z,10.58
2023-04-26T11:17:14.566Z,10.62
2023-04-26T11:19:43.251Z,10.52
2023-04-26T11:22:11.788Z,10.62
2023-04-26T11:24:42.009Z,10.79
2023-04-26T11:27:11.581Z,10.91
2023-04-26T11:29:40.466Z,10.65
2023-04-26T11:32:09.570Z,10.64
2023-04-26T11:34:39.573Z,10.38
2023-04-26T11:37:08.678Z,10.15
2023-04-26T11:39:38.520Z,10.09
2023-04-26T11:42:27.601Z,10.07
2023-04-26T11:45:00.177Z,9.96
2023-04-26T11:47:30.997Z,10.27
2023-04-26T11:50:00.233Z,10.61
2023-04-26T11:52:29.783Z,10.85
2023-04-26T11:55:06.254Z,10.68
2023-04-26T11:57:36.752Z,10.40
2023-04-26T12:00:14.941Z,10.39
2023-04-26T12:02:47.260Z,10.56
2023-04-26T12:05:31.799Z,10.90
2023-04-26T12:08:01.793Z,11.14
2023-04-26T12:10:33.700Z,11.59
2023-04-26T12:13:03.979Z,11.88
2023-04-26T12:15:35.006Z,12.08
2023-04-26T12:18:11.248Z,11.81
2023-04-26T12:20:41.214Z,11.93
2023-04-26T12:23:14.912Z,12.09
2023-04-26T12:25:53.163Z,12.15
2023-04-26T12:28:24.642Z,12.28
2023-04-26T12:30:53.974Z,12.31
2023-04-26T12:33:23.405Z,12.27
2023-04-26T12:35:52.295Z,12.30
2023-04-26T12:38:21.198Z,12.62
2023-04-26T12:40:49.684Z,12.71
2023-04-26T12:43:19.790Z,12.79
2023-04-26T12:45:49.985Z,12.23
2023-04-26T12:48:18.625Z,12.14
2023-04-26T12:50:47.314Z,12.21
2023-04-26T12:53:15.792Z,12.22
2023-04-26T12:55:45.425Z,12.53
2023-04-26T12:58:14.116Z,12.58
2023-04-26T13:00:44.471Z,12.79
2023-04-26T13:03:15.200Z,12.79
2023-04-26T13:05:44.264Z,11.95
2023-04-26T13:08:13.143Z,11.80
2023-04-26T13:10:48.974Z,11.41
2023-04-26T13:13:17.423Z,11.18
2023-04-26T13:15:46.230Z,11.30
2023-04-26T13:18:18.279Z,11.55
2023-04-26T13:20:48.180Z,11.84
2023-04-26T13:23:16.912Z,12.05
2023-04-26T13:25:45.564Z,12.29
2023-04-26T13:28:14.530Z,12.56
2023-04-26T13:30:43.266Z,12.74
2023-04-26T13:33:11.835Z,12.92
2023-04-26T13:35:41.822Z,13.10
2023-04-26T13:38:10.301Z,12.69
2023-04-26T13:40:40.851Z,12.53
2023-04-26T13:43:09.324Z,12.54
2023-04-26T13:45:37.865Z,12.53
2023-04-26T13:48:06.627Z,12.59
2023-04-26T13:50:36.985Z,12.57
2023-04-26T13:53:07.015Z,12.12
2023-04-26T13:55:35.788Z,12.23
2023-04-26T13:58:04.317Z,12.31
2023-04-26T14:00:32.874Z,12.27
2023-04-26T14:03:01.719Z,12.37
2023-04-26T14:05:30.566Z,12.39
2023-04-26T14:07:59.512Z,12.25
2023-04-26T14:10:29.896Z,11.93
2023-04-26T14:12:58.397Z,11.46
2023-04-26T14:15:27.005Z,11.27
2023-04-26T14:17:55.498Z,11.13
2023-04-26T14:20:24.071Z,10.96
2023-04-26T14:22:52.648Z,10.84
2023-04-26T14:25:21.210Z,11.06
2023-04-26T14:27:53.040Z,11.25
2023-04-26T14:30:22.305Z,11.45
2023-04-26T14:32:50.982Z,11.48
2023-04-26T14:35:19.582Z,11.52
2023-04-26T14:37:48.069Z,11.49
2023-04-26T14:40:16.681Z,11.76
2023-04-26T14:42:46.268Z,11.79
2023-04-26T14:45:16.712Z,11.74
2023-04-26T14:47:45.191Z,11.55
2023-04-26T14:50:14.600Z,11.52
2023-04-26T14:52:43.151Z,11.54
2023-04-26T14:55:12.287Z,11.72
2023-04-26T14:57:42.471Z,11.50
2023-04-26T15:00:15.432Z,11.34
2023-04-26T15:02:46.007Z,11.19
2023-04-26T15:05:15.259Z,10.96
2023-04-26T15:07:44.060Z,11.09
2023-04-26T15:10:12.722Z,11.27
2023-04-26T15:12:41.298Z,11.46
2023-04-26T15:15:10.455Z,11.60
2023-04-26T15:17:39.077Z,11.83
2023-04-26T15:20:10.917Z,11.70
2023-04-26T15:22:39.978Z,11.51
2023-04-26T15:25:10.961Z,11.34
2023-04-26T15:27:39.842Z,11.15
2023-04-26T15:30:09.735Z,11.01
2023-04-26T15:32:38.507Z,11.01
2023-04-26T15:35:09.561Z,11.04
2023-04-26T15:37:39.056Z,10.86
2023-04-26T15:40:10.713Z,10.86
2023-04-26T15:42:40.022Z,10.91
2023-04-26T15:45:09.576Z,10.80
2023-04-26T15:47:38.713Z,10.81
2023-04-26T15:50:09.937Z,10.77
2023-04-26T15:52:39.494Z,10.86
2023-04-26T15:55:10.769Z,11.41
2023-04-26T15:57:39.221Z,11.57
2023-04-26T16:00:10.323Z,11.55
2023-04-26T16:02:39.212Z,11.70
2023-04-26T16:05:10.243Z,11.76
2023-04-26T16:07:39.420Z,11.38
2023-04-26T16:10:09.762Z,11.56
2023-04-26T16:12:39.983Z,11.40
2023-04-26T16:15:10.145Z,11.36
2023-04-26T16:17:39.486Z,11.22
2023-04-26T16:20:10.876Z,11.22
2023-04-26T16:22:39.397Z,11.31
2023-04-26T16:25:09.181Z,11.26
2023-04-26T16:27:37.855Z,11.22
2023-04-26T16:30:07.174Z,11.26
2023-04-26T16:32:35.705Z,11.35
2023-04-26T16:35:04.882Z,11.39
2023-04-26T16:37:34.820Z,11.55
2023-04-26T16:40:05.322Z,11.52
2023-04-26T16:42:33.895Z,11.47
2023-04-26T16:45:02.469Z,11.27
2023-04-26T16:47:31.255Z,11.34
2023-04-26T16:50:00.230Z,11.26
2023-04-26T16:52:28.906Z,11.19
2023-04-26T16:55:02.278Z,11.22
2023-04-26T16:57:30.764Z,11.09
2023-04-26T16:59:59.880Z,11.02
2023-04-26T17:02:28.608Z,11.03
2023-04-26T17:04:59.111Z,10.97
2023-04-26T17:07:27.634Z,11.03
2023-04-26T17:09:56.149Z,11.06
2023-04-26T17:12:26.269Z,10.99
2023-04-26T17:14:54.775Z,10.84
2023-04-26T17:17:23.360Z,10.71
2023-04-26T17:19:52.030Z,10.61
2023-04-26T17:22:21.106Z,10.53
2023-04-26T17:24:49.688Z,10.26
2023-04-26T17:27:18.236Z,10.35
2023-04-26T17:29:48.212Z,10.41
2023-04-26T17:32:16.946Z,10.43
2023-04-26T17:34:45.825Z,10.49
2023-04-26T17:37:14.400Z,10.47
2023-04-26T17:39:43.277Z,10.37
2023-04-26T17:42:12.072Z,10.03
2023-04-26T17:44:41.929Z,10.07
2023-04-26T17:47:12.114Z,10.18
2023-04-26T17:49:40.568Z,10.16
2023-04-26T17:52:09.091Z,9.93
2023-04-26T17:54:37.520Z,9.96
2023-04-26T17:57:07.964Z,10.01
2023-04-26T17:59:36.489Z,10.01
2023-04-26T18:02:05.125Z,10.05
2023-04-26T18:04:35.756Z,10.07
2023-04-26T18:07:04.935Z,10.09
2023-04-26T18:09:33.598Z,10.13
2023-04-26T18:12:02.978Z,10.14
2023-04-26T18:14:31.516Z,10.15
2023-04-26T18:17:00.100Z,10.16
2023-04-26T18:19:28.788Z,10.13
2023-04-26T18:21:58.692Z,10.10
2023-04-26T18:24:27.401Z,10.08
2023-04-26T18:26:56.140Z,9.98
2023-04-26T18:29:24.661Z,9.91
2023-04-26T18:31:53.393Z,9.85
2023-04-26T18:34:22.054Z,9.80
2023-04-26T18:36:50.601Z,9.82
2023-04-26T18:39:20.467Z,9.80
2023-04-26T18:41:48.958Z,9.81
2023-04-26T18:44:17.335Z,9.83
2023-04-26T18:46:47.065Z,9.78
2023-04-26T18:49:15.799Z,9.72
2023-04-26T18:51:45.544Z,9.72
2023-04-26T18:54:14.154Z,9.72
2023-04-26T18:56:44.297Z,9.71
2023-04-26T18:59:13.241Z,9.70
2023-04-26T19:01:41.856Z,9.73
2023-04-26T19:04:11.316Z,9.68
2023-04-26T19:06:41.893Z,9.68
2023-04-26T19:09:11.958Z,9.64
2023-04-26T19:11:40.634Z,9.64
2023-04-26T19:14:10.836Z,9.61
2023-04-26T19:16:39.772Z,9.69
2023-04-26T19:19:08.168Z,9.68
2023-04-26T19:21:36.907Z,9.65
2023-04-26T19:24:05.987Z,9.62
2023-04-26T19:26:34.564Z,9.60
2023-04-26T19:29:05.391Z,9.52
2023-04-26T19:31:36.660Z,9.50
2023-04-26T19:34:05.600Z,9.52
2023-04-26T19:36:34.980Z,9.49
2023-04-26T19:39:04.810Z,9.48
2023-04-26T19:41:33.296Z,9.46
2023-04-26T19:44:02.073Z,9.41
2023-04-26T19:46:30.599Z,9.39
2023-04-26T19:49:00.517Z,9.37
2023-04-26T19:51:29.067Z,9.28
2023-04-26T19:53:57.642Z,9.31
2023-04-26T19:56:26.130Z,9.27
2023-04-26T19:58:54.608Z,9.28
2023-04-26T20:01:23.099Z,9.27
2023-04-26T20:03:51.583Z,9.27
2023-04-26T20:06:21.615Z,9.24
2023-04-26T20:08:50.170Z,9.21
2023-04-26T20:11:19.394Z,9.19
2023-04-26T20:13:48.142Z,9.18
2023-04-26T20:16:16.967Z,9.16
2023-04-26T20:18:45.557Z,9.13
2023-04-26T20:21:14.114Z,9.06
2023-04-26T20:23:44.131Z,9.03
2023-04-26T20:26:12.566Z,8.97
2023-04-26T20:28:43.868Z,8.99
2023-04-26T20:31:12.561Z,8.89
2023-04-26T20:33:41.152Z,8.89
2023-04-26T20:36:09.891Z,8.86
2023-04-26T20:38:39.182Z,8.84
2023-04-26T20:41:09.417Z,8.82
2023-04-26T20:43:39.676Z,8.79
2023-04-26T20:46:08.415Z,8.76
2023-04-26T20:48:36.981Z,8.76
2023-04-26T20:51:05.604Z,8.70
2023-04-26T20:53:34.094Z,8.69
2023-04-26T20:56:02.618Z,8.67
2023-04-26T20:58:32.671Z,8.66
2023-04-26T21:01:01.219Z,8.66
2023-04-26T21:03:30.000Z,8.61
2023-04-26T21:05:58.725Z,8.63
2023-04-26T21:08:27.160Z,8.59
2023-04-26T21:10:55.855Z,8.58
2023-04-26T21:13:24.293Z,8.57
2023-04-26T21:15:56.556Z,8.52
2023-04-26T21:18:25.125Z,8.51
2023-04-26T21:20:53.630Z,8.46
2023-04-26T21:23:22.392Z,8.44
2023-04-26T21:25:51.665Z,8.37
2023-04-26T21:28:20.276Z,8.38
2023-04-26T21:30:48.857Z,8.38
2023-04-26T21:33:19.125Z,8.31
2023-04-26T21:35:47.654Z,8.27
2023-04-26T21:38:16.177Z,8.30
2023-04-26T21:40:44.705Z,8.27
2023-04-26T21:43:15.700Z,8.28
2023-04-26T21:45:44.194Z,8.23
2023-04-26T21:48:12.610Z,8.21
2023-04-26T21:50:42.529Z,8.17
2023-04-26T21:53:11.128Z,8.15
2023-04-26T21:55:39.622Z,8.15
2023-04-26T21:58:08.215Z,8.11
2023-04-26T22:00:36.976Z,8.09
2023-04-26T22:03:05.586Z,8.02
2023-04-26T22:05:34.228Z,8.02
2023-04-26T22:08:04.109Z,7.99
2023-04-26T22:10:32.625Z,7.89
2023-04-26T22:13:01.161Z,7.93
2023-04-26T22:15:30.063Z,7.90
2023-04-26T22:17:58.568Z,7.88
2023-04-26T22:20:27.147Z,7.84
2023-04-26T22:22:55.981Z,7.78
2023-04-26T22:25:26.970Z,7.78
2023-04-26T22:27:55.882Z,7.76
2023-04-26T22:30:25.985Z,7.71
2023-04-26T22:32:55.820Z,7.71
2023-04-26T22:35:25.490Z,7.69
2023-04-26T22:37:54.324Z,7.66
2023-04-26T22:40:23.060Z,7.59
2023-04-26T22:42:53.042Z,7.60
2023-04-26T22:45:21.717Z,7.53
2023-04-26T22:47:50.235Z,7.44
2023-04-26T22:50:18.748Z,7.49
2023-04-26T22:52:47.491Z,7.48
2023-04-26T22:55:16.245Z,7.45
2023-04-26T22:57:44.628Z,7.42
2023-04-26T23:00:16.215Z,7.38
2023-04-26T23:02:44.804Z,7.36
2023-04-26T23:05:13.512Z,7.33
2023-04-26T23:07:42.039Z,7.30
2023-04-26T23:10:11.093Z,7.26
2023-04-26T23:12:40.878Z,7.23
2023-04-26T23:15:10.274Z,7.22
2023-04-26T23:17:42.004Z,7.20
2023-04-26T23:20:13.177Z,7.15
2023-04-26T23:22:41.871Z,7.11
2023-04-26T23:25:11.392Z,7.08
2023-04-26T23:27:40.196Z,7.05
2023-04-26T23:30:16.383Z,7.01
2023-04-26T23:32:46.360Z,7.01
2023-04-26T23:35:15.076Z,6.99
2023-04-26T23:37:43.560Z,6.96
2023-04-26T23:40:12.733Z,6.93
2023-04-26T23:42:41.540Z,6.88
2023-04-26T23:45:11.790Z,6.87
2023-04-26T23:47:40.906Z,6.84
2023-04-26T23:50:11.417Z,6.79
2023-04-26T23:52:39.844Z,6.74
2023-04-26T23:55:10.015Z,6.71
2023-04-26T23:57:38.436Z,6.70
